Strona główna
METAR-TAF:

METAR-TAF

Lotnisko :

Port lotniczy Figari-Korsyka Południowa

Figari, Francja

Szerokość geograficzna: 41-30N, Długość geograficzna: 009-06E, wysokość: 26 m

Aktualna obserwacja pogody

Raport powstał 40 minut temu, godzina 00:00 UTC
Wiatr 5 kt od północny wschód
Temperatura 2°C
Wilgotność 93%
Ciśnienie 1021 hPa
Widzialność 10 km lub więcej
Brak chmur poniżej 1500 m i brak chmur cumulonimbus

METAR: LFKF 050000Z AUTO 05005KT CAVOK 02/01 Q1021

czas: 02:40 (00:40 UTC)

Prognoza

Raport powstał 10 godziny i 40 minut temu, godzina 14:00 UTC
Prognoza ważna od 04 godzina 15 UTC do 05 godzina 15 UTC
Wiatr 10 kt od wschód
Widzialność 10 km lub więcej
Brak chmur poniżej 1500 m i brak chmur cumulonimbus

TAF: LFKF 041400Z 0415/0515 09010KT CAVOK

Obserwacja i prognoza pogody dla ponad 4000 lotnisk (raport METAR i TAF).

Dostępne stacje oznaczono żółtymi i czerwonymi punktami na mapie.

Najedź kursorem aby zobaczyć nazwę stacji.

Kliknij aby zobaczyć obserwacje i prognozy pogody.

Aby zmienić mapę: kliknij na zielony przycisk z czarnym krzyżykiem, aby powiększyć; na zielony przycisk z myślnikiem, aby pomniejszyć; na zielone strzałki, aby przejść do map sąsiednich.


METAR-TAF: